createdAt,value
2022-11-12T00:01:39.598Z,6.30
2022-11-12T00:04:31.545Z,6.30
2022-11-12T00:07:17.140Z,6.40
2022-11-12T00:10:03.036Z,6.40
2022-11-12T00:12:48.814Z,6.40
2022-11-12T00:15:34.526Z,6.50
2022-11-12T00:18:20.388Z,6.50
2022-11-12T00:21:05.896Z,6.40
2022-11-12T00:23:51.158Z,6.50
2022-11-12T00:26:36.493Z,6.30
2022-11-12T00:29:22.129Z,6.40
2022-11-12T00:32:07.447Z,6.30
2022-11-12T00:34:52.786Z,6.30
2022-11-12T00:37:38.280Z,6.30
2022-11-12T00:40:24.616Z,6.30
2022-11-12T00:43:09.986Z,6.40
2022-11-12T00:45:55.522Z,6.40
2022-11-12T00:48:40.781Z,6.40
2022-11-12T00:51:26.407Z,6.20
2022-11-12T00:54:11.911Z,6.20
2022-11-12T00:56:57.588Z,6.20
2022-11-12T00:59:43.123Z,6.00
2022-11-12T01:02:28.868Z,5.90
2022-11-12T01:05:14.765Z,5.90
2022-11-12T01:08:00.370Z,6.00
2022-11-12T01:10:45.628Z,6.00
2022-11-12T01:13:30.928Z,6.00
2022-11-12T01:16:19.779Z,6.00
2022-11-12T01:19:06.248Z,6.10
2022-11-12T01:21:51.456Z,5.90
2022-11-12T01:24:36.940Z,5.90
2022-11-12T01:27:22.197Z,5.90
2022-11-12T01:30:08.137Z,5.80
2022-11-12T01:32:53.377Z,5.90
2022-11-12T01:35:38.736Z,5.90
2022-11-12T01:38:24.564Z,5.90
2022-11-12T01:41:18.329Z,5.90
2022-11-12T01:44:13.294Z,5.90
2022-11-12T01:47:34.066Z,5.90
2022-11-12T01:50:30.700Z,5.80
2022-11-12T01:53:16.173Z,5.90
2022-11-12T01:56:01.936Z,5.90
2022-11-12T01:58:47.446Z,6.00
2022-11-12T02:01:32.911Z,6.00
2022-11-12T02:04:18.226Z,6.00
2022-11-12T02:07:03.806Z,6.00
2022-11-12T02:09:49.397Z,5.90
2022-11-12T02:12:53.330Z,5.80
2022-11-12T02:15:38.789Z,5.70
2022-11-12T02:18:24.108Z,5.70
2022-11-12T02:21:10.182Z,5.70
2022-11-12T02:24:13.897Z,5.70
2022-11-12T02:26:59.714Z,5.80
2022-11-12T02:29:47.696Z,5.80
2022-11-12T02:32:32.954Z,5.70
2022-11-12T02:35:18.310Z,5.70
2022-11-12T02:38:04.346Z,5.70
2022-11-12T02:40:49.904Z,5.60
2022-11-12T02:43:35.381Z,5.60
2022-11-12T02:46:20.796Z,5.60
2022-11-12T02:49:06.209Z,5.50
2022-11-12T02:51:51.430Z,5.60
2022-11-12T02:54:36.702Z,5.30
2022-11-12T02:57:21.880Z,5.30
2022-11-12T03:00:10.617Z,5.40
2022-11-12T03:03:01.710Z,5.60
2022-11-12T03:05:53.887Z,5.60
2022-11-12T03:08:39.295Z,5.70
2022-11-12T03:11:24.632Z,5.50
2022-11-12T03:14:10.212Z,5.50
2022-11-12T03:16:55.598Z,5.50
2022-11-12T03:19:41.155Z,5.60
2022-11-12T03:22:26.794Z,5.60
2022-11-12T03:25:12.081Z,5.70
2022-11-12T03:28:01.080Z,5.50
2022-11-12T03:30:46.645Z,5.50
2022-11-12T03:33:32.107Z,5.60
2022-11-12T03:36:17.723Z,5.70
2022-11-12T03:39:03.400Z,5.60
2022-11-12T03:41:48.800Z,5.50
2022-11-12T03:44:34.548Z,5.40
2022-11-12T03:47:19.612Z,5.50
2022-11-12T03:50:06.618Z,5.50
2022-11-12T03:52:53.417Z,5.60
2022-11-12T03:55:38.993Z,5.50
2022-11-12T03:58:24.475Z,5.50
2022-11-12T04:01:10.252Z,5.50
2022-11-12T04:03:55.431Z,5.60
2022-11-12T04:06:59.425Z,5.70
2022-11-12T04:09:44.545Z,5.60
2022-11-12T04:12:48.556Z,5.60
2022-11-12T04:15:33.861Z,5.70
2022-11-12T04:18:51.521Z,5.60
2022-11-12T04:21:56.253Z,5.50
2022-11-12T04:25:01.128Z,5.60
2022-11-12T04:27:46.685Z,5.50
2022-11-12T04:30:31.969Z,5.50
2022-11-12T04:33:17.515Z,5.50
2022-11-12T04:36:02.754Z,5.50
2022-11-12T04:38:48.024Z,5.60
2022-11-12T04:41:51.811Z,5.60
2022-11-12T04:44:55.913Z,5.50
2022-11-12T04:47:41.585Z,5.50
2022-11-12T04:50:26.785Z,5.40
2022-11-12T04:53:12.243Z,5.50
2022-11-12T04:55:58.586Z,5.40
2022-11-12T04:58:43.631Z,5.40
2022-11-12T05:01:29.063Z,5.20
2022-11-12T05:04:14.172Z,5.20
2022-11-12T05:07:00.547Z,5.20
2022-11-12T05:09:46.190Z,5.30
2022-11-12T05:12:31.509Z,5.20
2022-11-12T05:15:16.809Z,5.20
2022-11-12T05:18:02.444Z,5.30
2022-11-12T05:20:47.885Z,5.30
2022-11-12T05:23:33.235Z,5.30
2022-11-12T05:26:18.347Z,5.20
2022-11-12T05:29:08.561Z,5.20
2022-11-12T05:31:54.560Z,5.20
2022-11-12T05:34:39.760Z,5.30
2022-11-12T05:37:25.120Z,5.30
2022-11-12T05:40:10.898Z,5.40
2022-11-12T05:42:56.293Z,5.40
2022-11-12T05:45:44.949Z,5.40
2022-11-12T05:48:31.034Z,5.30
2022-11-12T05:51:16.835Z,5.40
2022-11-12T05:54:02.395Z,5.40
2022-11-12T05:56:47.950Z,5.40
2022-11-12T05:59:33.277Z,5.40
2022-11-12T06:02:18.744Z,5.40
2022-11-12T06:05:04.244Z,5.50
2022-11-12T06:07:49.904Z,5.30
2022-11-12T06:10:35.218Z,5.30
2022-11-12T06:13:21.828Z,5.30
2022-11-12T06:16:08.030Z,5.30
2022-11-12T06:18:53.582Z,5.30
2022-11-12T06:21:39.085Z,5.30
2022-11-12T06:24:27.479Z,5.30
2022-11-12T06:27:15.988Z,5.40
2022-11-12T06:30:01.552Z,5.40
2022-11-12T06:32:47.531Z,5.30
2022-11-12T06:35:32.920Z,5.30
2022-11-12T06:38:17.979Z,5.30
2022-11-12T06:41:04.251Z,5.30
2022-11-12T06:43:49.693Z,5.30
2022-11-12T06:46:34.827Z,5.30
2022-11-12T06:49:22.659Z,5.20
2022-11-12T06:52:11.070Z,5.20
2022-11-12T06:54:59.138Z,5.20
2022-11-12T06:57:44.768Z,5.20
2022-11-12T07:00:30.032Z,5.30
2022-11-12T07:03:15.670Z,5.30
2022-11-12T07:06:05.548Z,5.20
2022-11-12T07:08:51.579Z,5.20
2022-11-12T07:11:36.726Z,5.30
2022-11-12T07:14:21.896Z,5.30
2022-11-12T07:17:06.973Z,5.30
2022-11-12T07:19:52.338Z,5.40
2022-11-12T07:22:37.952Z,5.40
2022-11-12T07:25:23.500Z,5.40
2022-11-12T07:28:08.796Z,5.50
2022-11-12T07:30:58.626Z,5.50
2022-11-12T07:33:44.225Z,5.40
2022-11-12T07:36:29.731Z,5.40
2022-11-12T07:39:14.986Z,5.40
2022-11-12T07:42:00.536Z,5.30
2022-11-12T07:44:45.944Z,5.30
2022-11-12T07:47:31.993Z,5.30
2022-11-12T07:50:17.542Z,5.40
2022-11-12T07:53:03.084Z,5.30
2022-11-12T07:55:59.801Z,5.40
2022-11-12T07:58:45.564Z,5.40
2022-11-12T08:01:40.734Z,5.40
2022-11-12T08:04:26.035Z,5.30
2022-11-12T08:07:11.383Z,5.30
2022-11-12T08:09:57.242Z,5.40
2022-11-12T08:12:42.694Z,5.40
2022-11-12T08:15:28.287Z,5.50
2022-11-12T08:18:13.819Z,5.50
2022-11-12T08:21:00.556Z,5.50
2022-11-12T08:23:46.069Z,5.60
2022-11-12T08:26:31.362Z,5.60
2022-11-12T08:29:16.907Z,5.60
2022-11-12T08:32:02.196Z,5.60
2022-11-12T08:34:47.532Z,5.50
2022-11-12T08:37:33.088Z,5.50
2022-11-12T08:40:18.545Z,5.50
2022-11-12T08:43:09.206Z,5.40
2022-11-12T08:45:54.621Z,5.50
2022-11-12T08:48:40.237Z,5.40
2022-11-12T08:51:25.400Z,5.40
2022-11-12T08:54:11.044Z,5.50
2022-11-12T08:56:56.595Z,5.50
2022-11-12T08:59:42.268Z,5.50
2022-11-12T09:02:27.585Z,5.50
2022-11-12T09:05:13.104Z,5.50
2022-11-12T09:07:59.476Z,5.50
2022-11-12T09:10:45.437Z,5.50
2022-11-12T09:13:30.823Z,5.50
2022-11-12T09:16:16.022Z,5.60
2022-11-12T09:19:01.199Z,5.50
2022-11-12T09:21:46.557Z,5.60
2022-11-12T09:24:31.931Z,5.70
2022-11-12T09:27:17.755Z,5.60
2022-11-12T09:30:03.130Z,5.70
2022-11-12T09:32:48.514Z,5.60
2022-11-12T09:35:33.852Z,5.60
2022-11-12T09:38:19.583Z,5.60
2022-11-12T09:41:16.406Z,5.70
2022-11-12T09:44:03.692Z,5.80
2022-11-12T09:46:57.525Z,5.80
2022-11-12T09:49:50.261Z,5.80
2022-11-12T09:52:35.381Z,5.90
2022-11-12T09:55:36.546Z,5.80
2022-11-12T09:58:21.995Z,6.00
2022-11-12T10:01:15.324Z,6.00
2022-11-12T10:04:19.026Z,6.10
2022-11-12T10:07:13.551Z,6.10
2022-11-12T10:10:15.813Z,6.10
2022-11-12T10:13:24.024Z,6.20
2022-11-12T10:16:34.173Z,6.30
2022-11-12T10:20:08.570Z,6.40
2022-11-12T10:23:14.076Z,6.60
2022-11-12T10:26:00.178Z,6.60
2022-11-12T10:28:47.944Z,6.70
2022-11-12T10:32:00.288Z,6.80
2022-11-12T10:36:24.670Z,6.60
2022-11-12T10:39:10.051Z,6.70
2022-11-12T10:42:12.545Z,6.70
2022-11-12T10:45:19.224Z,6.80
2022-11-12T10:48:33.950Z,6.80
2022-11-12T10:51:29.647Z,6.70
2022-11-12T10:54:25.517Z,6.80
2022-11-12T10:57:22.959Z,6.70
2022-11-12T11:00:24.481Z,6.70
2022-11-12T11:03:27.217Z,6.70
2022-11-12T11:06:16.114Z,6.80
2022-11-12T11:09:13.647Z,7.00
2022-11-12T11:11:59.370Z,7.00
2022-11-12T11:14:44.631Z,7.10
2022-11-12T11:17:30.009Z,7.20
2022-11-12T11:20:44.040Z,7.10
2022-11-12T11:23:51.406Z,7.10
2022-11-12T11:26:48.460Z,7.20
2022-11-12T11:29:39.544Z,7.40
2022-11-12T11:32:37.032Z,7.40
2022-11-12T11:35:49.497Z,7.40
2022-11-12T11:38:39.128Z,7.40
2022-11-12T11:42:02.910Z,7.40
2022-11-12T11:45:09.695Z,7.30
2022-11-12T11:48:02.595Z,7.30
2022-11-12T11:51:16.341Z,7.20
2022-11-12T11:54:27.755Z,7.30
2022-11-12T11:57:16.500Z,7.20
2022-11-12T12:00:19.295Z,7.20
2022-11-12T12:03:33.578Z,7.20
2022-11-12T12:06:26.604Z,7.20
2022-11-12T12:09:20.533Z,7.20
2022-11-12T12:12:31.048Z,7.40
2022-11-12T12:15:56.234Z,7.50
2022-11-12T12:19:02.633Z,7.50
2022-11-12T12:21:50.144Z,7.70
2022-11-12T12:24:55.988Z,7.70
2022-11-12T12:27:47.681Z,7.70
2022-11-12T12:30:35.585Z,7.60
2022-11-12T12:33:20.695Z,7.80
2022-11-12T12:36:15.688Z,7.80
2022-11-12T12:39:27.170Z,7.90
2022-11-12T12:42:30.689Z,7.80
2022-11-12T12:45:36.188Z,7.90
2022-11-12T12:48:48.142Z,7.90
2022-11-12T12:51:33.692Z,7.90
2022-11-12T12:54:37.522Z,7.90
2022-11-12T12:57:41.283Z,7.90
2022-11-12T13:00:39.779Z,8.00
2022-11-12T13:03:43.880Z,8.00
2022-11-12T13:06:39.324Z,8.00
2022-11-12T13:09:25.741Z,8.10
2022-11-12T13:12:11.111Z,8.10
2022-11-12T13:15:11.535Z,8.10
2022-11-12T13:17:56.928Z,8.10
2022-11-12T13:20:42.567Z,8.00
2022-11-12T13:24:04.225Z,7.90
2022-11-12T13:26:50.912Z,7.90
2022-11-12T13:29:35.993Z,7.90
2022-11-12T13:32:45.889Z,8.00
2022-11-12T13:35:35.655Z,8.00
2022-11-12T13:38:21.168Z,8.00
2022-11-12T13:41:10.948Z,8.00
2022-11-12T13:43:56.153Z,8.10
2022-11-12T13:46:42.360Z,8.00
2022-11-12T13:49:27.451Z,8.00
2022-11-12T13:52:14.191Z,7.90
2022-11-12T13:55:07.352Z,7.80
2022-11-12T13:57:55.830Z,7.90
2022-11-12T14:00:40.952Z,7.90
2022-11-12T14:03:31.486Z,7.90
2022-11-12T14:06:36.209Z,7.90
2022-11-12T14:09:24.679Z,7.90
2022-11-12T14:12:34.706Z,7.90
2022-11-12T14:15:32.651Z,7.80
2022-11-12T14:18:43.171Z,7.80
2022-11-12T14:21:28.452Z,7.80
2022-11-12T14:24:13.976Z,7.80
2022-11-12T14:26:59.507Z,7.80
2022-11-12T14:29:44.693Z,7.80
2022-11-12T14:32:36.847Z,7.80
2022-11-12T14:35:26.550Z,7.80
2022-11-12T14:38:23.200Z,7.70
2022-11-12T14:41:22.442Z,7.70
2022-11-12T14:44:13.440Z,7.70
2022-11-12T14:46:59.043Z,7.70
2022-11-12T14:49:45.363Z,7.60
2022-11-12T14:52:36.994Z,7.70
2022-11-12T14:55:25.004Z,7.60
2022-11-12T14:58:16.707Z,7.70
2022-11-12T15:02:20.573Z,7.70
2022-11-12T15:04:41.734Z,7.60
2022-11-12T15:07:32.300Z,7.70
2022-11-12T15:10:40.434Z,7.60
2022-11-12T15:13:27.192Z,7.60
2022-11-12T15:16:19.046Z,7.60
2022-11-12T15:19:07.917Z,7.60
2022-11-12T15:22:01.215Z,7.50
2022-11-12T15:24:48.398Z,7.50
2022-11-12T15:27:36.065Z,7.50
2022-11-12T15:30:26.684Z,7.50
2022-11-12T15:33:12.114Z,7.50
2022-11-12T15:36:00.642Z,7.50
2022-11-12T15:38:58.207Z,7.50
2022-11-12T15:41:43.542Z,7.50
2022-11-12T15:44:32.229Z,7.50
2022-11-12T15:47:24.421Z,7.60
2022-11-12T15:50:18.180Z,7.60
2022-11-12T15:53:03.472Z,7.60
2022-11-12T15:55:49.015Z,7.60
2022-11-12T15:58:35.684Z,7.60
2022-11-12T16:01:21.344Z,7.60
2022-11-12T16:04:06.631Z,7.60
2022-11-12T16:06:52.349Z,7.50
2022-11-12T16:09:38.925Z,7.50
2022-11-12T16:12:24.339Z,7.50
2022-11-12T16:15:20.664Z,7.50
2022-11-12T16:18:06.413Z,7.50
2022-11-12T16:20:51.951Z,7.50
2022-11-12T16:23:37.322Z,7.50
2022-11-12T16:26:29.466Z,7.50
2022-11-12T16:29:15.139Z,7.50
2022-11-12T16:32:00.529Z,7.50
2022-11-12T16:34:46.039Z,7.60
2022-11-12T16:37:31.910Z,7.60
2022-11-12T16:40:23.088Z,7.60
2022-11-12T16:43:09.076Z,7.60
2022-11-12T16:45:54.460Z,7.60
2022-11-12T16:48:40.100Z,7.60
2022-11-12T16:51:25.576Z,7.60
2022-11-12T16:54:11.014Z,7.60
2022-11-12T16:56:56.538Z,7.60
2022-11-12T16:59:42.259Z,7.60
2022-11-12T17:02:27.634Z,7.60
2022-11-12T17:05:24.402Z,7.70
2022-11-12T17:08:10.561Z,7.70
2022-11-12T17:10:56.655Z,7.70
2022-11-12T17:13:42.062Z,7.60
2022-11-12T17:16:27.656Z,7.60
2022-11-12T17:19:12.874Z,7.60
2022-11-12T17:21:58.048Z,7.50
2022-11-12T17:24:43.308Z,7.40
2022-11-12T17:27:28.819Z,7.40
2022-11-12T17:30:14.197Z,7.40
2022-11-12T17:33:00.321Z,7.30
2022-11-12T17:35:45.614Z,7.30
2022-11-12T17:38:31.221Z,7.30
2022-11-12T17:41:16.779Z,7.20
2022-11-12T17:44:02.313Z,7.20
2022-11-12T17:46:47.850Z,7.20
2022-11-12T17:49:33.287Z,7.20
2022-11-12T17:52:18.676Z,7.20
2022-11-12T17:55:04.445Z,7.30
2022-11-12T17:57:49.504Z,7.20
2022-11-12T18:00:35.573Z,7.20
2022-11-12T18:03:20.933Z,7.20
2022-11-12T18:06:06.877Z,7.30
2022-11-12T18:08:53.987Z,7.30
2022-11-12T18:11:47.182Z,7.30
2022-11-12T18:14:32.581Z,7.30
2022-11-12T18:17:18.181Z,7.20
2022-11-12T18:20:03.777Z,7.30
2022-11-12T18:22:48.898Z,7.30
2022-11-12T18:25:37.987Z,7.20
2022-11-12T18:28:23.419Z,7.20
2022-11-12T18:31:08.865Z,7.20
2022-11-12T18:33:54.837Z,7.20
2022-11-12T18:36:40.181Z,7.20
2022-11-12T18:39:26.487Z,7.20
2022-11-12T18:42:11.770Z,7.20
2022-11-12T18:44:57.121Z,7.10
2022-11-12T18:47:42.469Z,7.10
2022-11-12T18:50:27.480Z,7.10
2022-11-12T18:53:12.539Z,7.00
2022-11-12T18:56:06.317Z,7.00
2022-11-12T18:58:51.884Z,6.90
2022-11-12T19:01:37.284Z,6.90
2022-11-12T19:04:22.728Z,6.90
2022-11-12T19:07:08.332Z,6.90
2022-11-12T19:09:53.995Z,6.90
2022-11-12T19:12:39.655Z,6.90
2022-11-12T19:15:26.918Z,6.90
2022-11-12T19:18:13.335Z,7.00
2022-11-12T19:21:14.935Z,7.00
2022-11-12T19:24:00.524Z,6.90
2022-11-12T19:26:45.868Z,6.90
2022-11-12T19:29:31.950Z,6.90
2022-11-12T19:32:17.096Z,6.90
2022-11-12T19:35:02.928Z,6.80
2022-11-12T19:37:48.103Z,6.80
2022-11-12T19:40:33.812Z,6.80
2022-11-12T19:43:19.840Z,6.80
2022-11-12T19:46:05.576Z,6.80
2022-11-12T19:48:51.666Z,6.80
2022-11-12T19:51:37.423Z,6.90
2022-11-12T19:54:23.734Z,6.90
2022-11-12T19:57:09.246Z,6.90
2022-11-12T19:59:54.498Z,6.90
2022-11-12T20:02:40.078Z,6.80
2022-11-12T20:05:25.565Z,6.80
2022-11-12T20:08:11.270Z,6.80
2022-11-12T20:10:56.609Z,6.80
2022-11-12T20:13:43.128Z,6.80
2022-11-12T20:16:28.816Z,6.90
2022-11-12T20:19:14.336Z,6.90
2022-11-12T20:21:59.650Z,6.80
2022-11-12T20:24:45.136Z,6.90
2022-11-12T20:27:30.435Z,6.90
2022-11-12T20:30:15.855Z,6.90
2022-11-12T20:33:01.326Z,6.90
2022-11-12T20:35:46.876Z,6.90
2022-11-12T20:38:32.377Z,6.90
2022-11-12T20:41:21.869Z,6.90
2022-11-12T20:44:07.238Z,6.90
2022-11-12T20:46:52.559Z,7.00
2022-11-12T20:49:38.015Z,6.90
2022-11-12T20:52:23.720Z,7.00
2022-11-12T20:55:09.210Z,7.00
2022-11-12T20:57:54.631Z,7.00
2022-11-12T21:00:40.649Z,7.00
2022-11-12T21:03:26.168Z,7.00
2022-11-12T21:06:15.770Z,7.00
2022-11-12T21:09:01.452Z,7.00
2022-11-12T21:11:46.688Z,7.00
2022-11-12T21:14:32.097Z,7.00
2022-11-12T21:17:18.061Z,7.00
2022-11-12T21:20:04.132Z,7.00
2022-11-12T21:22:49.400Z,7.00
2022-11-12T21:25:35.940Z,7.10
2022-11-12T21:28:21.061Z,7.10
2022-11-12T21:31:07.919Z,7.00
2022-11-12T21:33:58.176Z,7.10
2022-11-12T21:36:43.590Z,7.10
2022-11-12T21:39:29.075Z,7.00
2022-11-12T21:42:14.663Z,7.00
2022-11-12T21:44:59.798Z,7.00
2022-11-12T21:47:45.225Z,7.00
2022-11-12T21:50:30.572Z,7.00
2022-11-12T21:53:17.167Z,7.00
2022-11-12T21:56:07.569Z,7.00
2022-11-12T21:58:53.921Z,7.00
2022-11-12T22:01:40.465Z,7.00
2022-11-12T22:04:25.685Z,7.00
2022-11-12T22:07:11.247Z,7.00
2022-11-12T22:09:57.235Z,7.00
2022-11-12T22:12:58.657Z,7.00
2022-11-12T22:15:50.690Z,7.00
2022-11-12T22:18:36.461Z,7.00
2022-11-12T22:21:29.678Z,7.00
2022-11-12T22:24:17.254Z,7.00
2022-11-12T22:27:05.647Z,7.00
2022-11-12T22:29:51.737Z,7.00
2022-11-12T22:32:37.616Z,7.00
2022-11-12T22:35:22.857Z,6.90
2022-11-12T22:38:08.649Z,6.90
2022-11-12T22:41:01.032Z,7.00
2022-11-12T22:43:47.673Z,7.00
2022-11-12T22:46:35.401Z,6.90
2022-11-12T22:49:20.504Z,7.00
2022-11-12T22:52:06.252Z,6.90
2022-11-12T22:54:51.980Z,6.90
2022-11-12T22:57:37.534Z,6.90
2022-11-12T23:00:30.204Z,6.90
2022-11-12T23:03:15.693Z,6.90
2022-11-12T23:06:03.154Z,6.90
2022-11-12T23:08:48.639Z,6.80
2022-11-12T23:11:36.120Z,6.80
2022-11-12T23:14:21.339Z,6.80
2022-11-12T23:17:06.646Z,6.70
2022-11-12T23:19:52.079Z,6.70
2022-11-12T23:22:37.477Z,6.80
2022-11-12T23:25:22.744Z,6.70
2022-11-12T23:28:08.382Z,6.70
2022-11-12T23:30:53.842Z,6.70
2022-11-12T23:33:39.294Z,6.70
2022-11-12T23:36:25.387Z,6.70
2022-11-12T23:39:11.155Z,6.70
2022-11-12T23:41:56.321Z,6.70
2022-11-12T23:44:41.776Z,6.70
2022-11-12T23:47:27.204Z,6.70
2022-11-12T23:50:12.592Z,6.80
2022-11-12T23:52:58.219Z,6.80
2022-11-12T23:55:43.919Z,6.80
2022-11-12T23:58:29.716Z,6.80
